Time;durP1;ratioP1;P1;durP2;ratioP2;P2;SDS_P1;SDS_P2;PMS_P1;PMS_P2;Temp;Humidity;BMP_temperature;BMP_pressure;BME280_temperature;BME280_humidity;BME280_pressure;Samples;Min_cycle;Max_cycle;Signal;HPM_P1;HPM_P2
2022/10/30 00:00:56;;;;;;;12.48;4.05;;;18.80;99.90;;;-144.05;45.54;125687.94;5014188;28;20049;-86
2022/10/30 00:03:22;;;;;;;10.10;3.63;;;18.80;99.90;;;-144.05;45.71;125687.94;5014193;28;20054;-85
2022/10/30 00:05:51;;;;;;;10.23;3.42;;;18.80;99.90;;;-144.05;45.68;125687.94;5014519;28;20061;-86
2022/10/30 00:08:21;;;;;;;10.05;3.88;;;18.80;99.90;;;-144.05;45.92;125687.94;5015758;28;20038;-88
2022/10/30 00:10:51;;;;;;;9.63;3.35;;;18.70;99.90;;;-144.05;45.80;125687.94;5014561;28;20034;-85
2022/10/30 00:13:18;;;;;;;11.45;3.70;;;18.70;99.90;;;-144.05;45.85;125687.94;4998378;28;20072;-89
2022/10/30 00:15:53;;;;;;;11.93;3.85;;;18.70;99.90;;;-144.05;45.98;125687.94;5014698;28;20026;-88
2022/10/30 00:18:20;;;;;;;11.10;3.25;;;18.70;99.90;;;-144.05;46.16;125687.94;5017119;28;20030;-87
2022/10/30 00:20:47;;;;;;;10.73;3.90;;;18.70;99.90;;;-144.05;46.16;125687.94;5020166;28;20161;-86
2022/10/30 00:23:14;;;;;;;10.45;3.75;;;18.70;99.90;;;-144.05;46.02;125687.94;5019179;28;20034;-88
2022/10/30 00:25:40;;;;;;;11.32;3.85;;;18.60;99.90;;;-144.05;46.29;125687.94;5001226;28;20137;-90
2022/10/30 00:28:07;;;;;;;12.02;3.50;;;18.60;99.90;;;-144.05;46.24;125687.94;5018511;28;20076;-87
2022/10/30 00:30:35;;;;;;;12.80;4.18;;;18.60;99.90;;;-144.05;46.34;125687.94;5002085;28;20029;-88
2022/10/30 00:33:02;;;;;;;11.80;4.15;;;18.50;99.90;;;-144.05;46.58;125687.94;5020383;28;20029;-89
2022/10/30 00:35:28;;;;;;;11.98;3.38;;;18.50;99.90;;;-144.05;46.55;125687.94;5017805;28;20045;-87
2022/10/30 00:37:54;;;;;;;7.68;3.05;;;18.50;99.90;;;-144.05;46.71;125687.94;5017034;28;20060;-85
2022/10/30 00:40:20;;;;;;;12.70;3.60;;;18.50;99.90;;;-144.05;46.79;125687.94;5015930;28;20521;-85
2022/10/30 00:42:46;;;;;;;10.63;3.17;;;18.40;99.90;;;-144.05;46.95;125687.94;5014528;28;20025;-85
2022/10/30 00:45:16;;;;;;;10.60;3.20;;;18.40;99.90;;;-144.05;46.92;125687.94;4998775;28;20045;-87
2022/10/30 00:47:59;;;;;;;9.90;3.85;;;18.40;99.90;;;-144.05;46.99;125687.94;5015425;28;20033;-88
2022/10/30 00:50:36;;;;;;;11.48;3.58;;;18.40;99.90;;;-144.05;47.11;125687.94;5015586;28;20034;-87
2022/10/30 00:53:16;;;;;;;13.85;4.13;;;18.30;99.90;;;-144.05;47.05;125687.94;4999291;28;20060;-88
2022/10/30 00:55:55;;;;;;;9.57;3.78;;;18.30;99.90;;;-144.05;46.91;125687.94;5014723;28;20068;-88
2022/10/30 00:58:41;;;;;;;10.57;4.57;;;18.30;99.90;;;-144.05;47.19;125687.94;5018594;28;20091;-86
2022/10/30 01:01:18;;;;;;;12.63;3.60;;;18.30;99.90;;;-144.05;46.88;125687.94;5034896;28;20038;-86
2022/10/30 01:03:49;;;;;;;11.68;3.95;;;18.40;99.90;;;-144.05;46.95;125687.94;5036419;28;20026;-85
2022/10/30 01:06:16;;;;;;;13.57;3.88;;;18.40;99.90;;;-144.05;46.93;125687.94;5035599;28;20069;-83
2022/10/30 01:08:44;;;;;;;11.75;3.70;;;18.30;99.90;;;-144.05;46.88;125687.94;4999987;28;20397;-85
2022/10/30 01:11:11;;;;;;;14.05;4.10;;;18.30;99.90;;;-144.05;46.94;125687.94;5012183;28;20049;-87
2022/10/30 01:13:41;;;;;;;10.30;4.07;;;18.30;99.90;;;-144.05;46.83;125687.94;5013878;28;20033;-86
2022/10/30 01:16:47;;;;;;;10.32;3.80;;;18.20;99.90;;;-144.05;47.19;125687.94;5012072;28;20026;-87
2022/10/30 01:19:47;;;;;;;12.18;4.03;;;18.20;99.90;;;-144.05;47.19;125687.94;5014579;28;20068;-87
2022/10/30 01:22:21;;;;;;;10.82;3.80;;;18.10;99.90;;;-144.05;47.66;125687.94;5015404;28;20022;-88
2022/10/30 01:25:35;;;;;;;10.35;3.72;;;17.90;99.90;;;-144.05;47.95;125687.94;5014743;28;20060;-87
2022/10/30 01:28:43;;;;;;;14.77;4.47;;;17.70;99.90;;;-144.05;48.57;125687.94;5015354;28;20038;-89
2022/10/30 01:31:48;;;;;;;8.35;3.15;;;17.60;99.90;;;-144.05;49.14;125687.94;4998059;28;20034;-89
2022/10/30 01:35:22;;;;;;;8.57;3.45;;;17.30;99.90;;;-144.05;49.74;125687.94;5015062;28;20490;-88
2022/10/30 01:38:01;;;;;;;13.18;4.47;;;17.10;99.90;;;-144.05;50.55;125687.94;5002076;28;20030;-88
2022/10/30 01:40:28;;;;;;;8.10;3.75;;;16.90;99.90;;;-144.05;50.96;125687.94;5015926;28;20124;-89
2022/10/30 01:42:57;;;;;;;10.85;4.88;;;16.70;99.90;;;-144.05;51.18;125687.94;5017551;28;20037;-86
2022/10/30 01:46:03;;;;;;;12.73;4.20;;;16.70;99.90;;;-144.05;51.34;125687.94;5016751;28;20133;-88
2022/10/30 01:48:53;;;;;;;10.93;3.38;;;16.60;99.90;;;-144.05;51.20;125687.94;5000649;28;20093;-88
2022/10/30 01:52:20;;;;;;;10.93;3.70;;;16.60;99.90;;;-144.05;51.71;125687.94;5011176;28;20072;-87
2022/10/30 01:55:37;;;;;;;9.90;3.58;;;16.50;99.90;;;-144.05;51.89;125687.94;5007299;28;20042;-88
2022/10/30 01:58:20;;;;;;;8.13;3.53;;;16.50;99.90;;;-144.05;52.13;125687.94;4998857;28;20076;-87
2022/10/30 02:00:56;;;;;;;12.18;4.45;;;16.40;99.90;;;-144.05;52.05;125687.94;5018166;28;20057;-87
2022/10/30 02:03:24;;;;;;;8.60;3.17;;;16.40;99.90;;;-144.05;52.26;125687.94;5017660;28;20030;-86
2022/10/30 02:05:52;;;;;;;12.73;4.05;;;16.30;99.90;;;-144.05;52.65;125687.94;5018364;28;20118;-87
2022/10/30 02:08:21;;;;;;;13.95;3.70;;;16.20;99.90;;;-144.05;52.79;125687.94;5000692;28;20033;-85
2022/10/30 02:10:51;;;;;;;10.70;3.92;;;16.20;99.90;;;-144.05;52.85;125687.94;5017145;28;20026;-87
2022/10/30 02:13:20;;;;;;;13.02;4.20;;;16.20;99.90;;;-144.05;52.92;125687.94;5001235;28;20061;-86
2022/10/30 02:15:48;;;;;;;13.27;4.15;;;16.20;99.90;;;-144.05;52.85;125687.94;5000809;28;20080;-89
2022/10/30 02:18:14;;;;;;;10.43;4.03;;;16.20;99.90;;;-144.05;52.92;125687.94;5017621;28;20026;-88
2022/10/30 02:20:41;;;;;;;8.48;3.55;;;16.20;99.90;;;-144.05;52.86;125687.94;5000950;28;20026;-88
2022/10/30 02:23:07;;;;;;;11.40;3.90;;;16.30;99.90;;;-144.05;52.89;125687.94;5016908;28;20022;-85
2022/10/30 02:25:34;;;;;;;8.27;3.50;;;16.30;99.90;;;-144.05;52.84;125687.94;5001208;28;20037;-87
2022/10/30 02:28:00;;;;;;;11.02;4.10;;;16.30;99.90;;;-144.05;52.99;125687.94;5017800;28;20037;-88
2022/10/30 02:30:26;;;;;;;10.30;3.72;;;16.20;99.90;;;-144.05;53.21;125687.94;5018490;28;20505;-89
2022/10/30 02:32:52;;;;;;;10.32;3.92;;;16.10;99.90;;;-144.05;53.02;125687.94;5018575;28;20050;-88
2022/10/30 02:35:18;;;;;;;8.98;3.53;;;16.10;99.90;;;-144.05;53.59;125687.94;5018683;28;20026;-90
2022/10/30 02:37:47;;;;;;;12.55;4.10;;;16.00;99.90;;;-144.05;53.56;125687.94;5018870;28;20080;-87
2022/10/30 02:40:13;;;;;;;9.13;3.80;;;16.10;99.90;;;-144.05;53.26;125687.94;5018905;28;20033;-87
2022/10/30 02:42:39;;;;;;;11.05;3.70;;;16.10;99.90;;;-144.05;52.97;125687.94;5019096;28;20428;-87
2022/10/30 02:45:06;;;;;;;10.25;4.28;;;16.30;99.90;;;-144.05;52.76;125687.94;5020439;28;20026;-87
2022/10/30 02:47:32;;;;;;;13.45;3.95;;;16.30;99.90;;;-144.05;52.96;125687.94;4998203;28;20129;-89
2022/10/30 02:49:58;;;;;;;16.20;4.07;;;16.40;99.90;;;-144.05;52.14;125687.94;5015554;28;20035;-87
2022/10/30 02:52:24;;;;;;;13.93;4.18;;;16.60;99.90;;;-144.05;52.52;125687.94;5015147;28;20103;-87
2022/10/30 02:54:50;;;;;;;8.95;3.80;;;16.50;99.90;;;-144.05;52.29;125687.94;5014862;28;20025;-85
2022/10/30 02:57:16;;;;;;;12.65;3.70;;;16.50;99.90;;;-144.05;52.32;125687.94;5014729;28;20049;-85
2022/10/30 02:59:42;;;;;;;13.80;3.92;;;16.60;99.90;;;-144.05;52.25;125687.94;5014697;28;20053;-88
2022/10/30 03:02:07;;;;;;;13.13;4.10;;;16.60;99.90;;;-144.05;52.51;125687.94;5014568;28;20508;-88
2022/10/30 03:04:33;;;;;;;12.73;3.92;;;16.60;99.90;;;-144.05;52.38;125687.94;5014614;28;20397;-86
2022/10/30 03:06:59;;;;;;;8.80;4.05;;;16.60;99.90;;;-144.05;52.43;125687.94;5015195;28;20030;-88
2022/10/30 03:09:25;;;;;;;11.23;3.80;;;16.60;99.90;;;-144.05;52.38;125687.94;5013717;28;20580;-88
2022/10/30 03:11:51;;;;;;;9.52;3.55;;;16.60;99.90;;;-144.05;52.51;125687.94;5014856;28;20029;-87
2022/10/30 03:14:17;;;;;;;12.05;3.88;;;16.60;99.90;;;-144.05;52.56;125687.94;5014492;28;20048;-85
2022/10/30 03:16:45;;;;;;;9.95;4.32;;;16.50;99.90;;;-144.05;52.77;125687.94;5016099;28;20037;-86
2022/10/30 03:19:11;;;;;;;14.80;4.38;;;16.60;99.90;;;-144.05;52.56;125687.94;5013781;28;20037;-84
2022/10/30 03:21:37;;;;;;;13.60;3.95;;;16.60;99.90;;;-144.05;52.58;125687.94;5013847;28;20030;-86
2022/10/30 03:24:04;;;;;;;13.18;4.25;;;16.50;99.90;;;-144.05;52.68;125687.94;4997017;28;20030;-87
2022/10/30 03:26:30;;;;;;;12.27;3.80;;;16.50;99.90;;;-144.05;52.74;125687.94;5013795;28;20018;-87
2022/10/30 03:28:56;;;;;;;13.52;4.50;;;16.40;99.90;;;-144.05;53.23;125687.94;5014322;28;20085;-88
2022/10/30 03:31:22;;;;;;;12.77;3.40;;;16.30;99.90;;;-144.05;53.30;125687.94;5014987;28;20478;-86
2022/10/30 03:33:47;;;;;;;9.00;3.60;;;16.20;99.90;;;-144.05;53.43;125687.94;5013684;28;20125;-86
2022/10/30 03:36:14;;;;;;;11.55;4.28;;;16.20;99.90;;;-144.05;53.59;125687.94;5013316;28;20029;-88
2022/10/30 03:38:41;;;;;;;8.48;3.70;;;16.10;99.90;;;-144.05;53.91;125687.94;5013225;28;20030;-85
2022/10/30 03:41:07;;;;;;;11.90;4.18;;;16.10;99.90;;;-144.05;53.86;125687.94;5013069;28;20033;-88
2022/10/30 03:43:33;;;;;;;13.20;4.07;;;16.10;99.90;;;-144.05;54.17;125687.94;5013186;28;20049;-84
2022/10/30 03:45:59;;;;;;;10.07;4.07;;;16.10;99.90;;;-144.05;54.19;125687.94;5012978;28;20026;-86
2022/10/30 03:48:28;;;;;;;8.95;3.47;;;16.00;99.90;;;-144.05;53.94;125687.94;5013372;28;20083;-87
2022/10/30 03:50:58;;;;;;;10.95;4.10;;;15.90;99.90;;;-144.05;54.59;125687.94;5012803;28;20032;-85
2022/10/30 06:39:01;;;;;;;;;;;;;;;;;;;;;
2022/10/30 07:03:56;;;;;;;7.63;4.72;;;13.50;99.90;;;-144.05;65.67;125687.94;4897042;29;20536;-87
2022/10/30 07:06:55;;;;;;;11.68;5.22;;;13.20;99.90;;;-144.05;66.15;125687.94;4910934;29;20047;-85
2022/10/30 07:09:21;;;;;;;13.05;4.97;;;13.00;99.90;;;-144.05;66.58;125687.94;4906174;28;20040;-84
2022/10/30 07:12:18;;;;;;;14.20;6.00;;;13.10;99.90;;;-144.05;66.63;125687.94;4995897;28;20123;-86
2022/10/30 07:14:50;;;;;;;10.73;5.13;;;13.20;99.90;;;-144.05;66.53;125687.94;4982676;28;20034;-88
2022/10/30 07:17:16;;;;;;;15.63;5.15;;;13.40;99.90;;;-144.05;66.17;125687.94;4978483;28;20494;-85
2022/10/30 07:19:48;;;;;;;15.27;5.25;;;13.60;99.90;;;-144.05;65.28;125687.94;4979239;28;20493;-88
2022/10/30 07:22:47;;;;;;;;;;;;;;;;;;;;;
2022/10/30 07:25:13;;;;;;;13.48;5.38;;;14.20;99.90;;;-144.05;62.61;125687.94;4996764;28;20107;-85
2022/10/30 07:28:30;;;;;;;10.30;4.32;;;14.60;99.90;;;-144.05;61.01;125687.94;4979448;28;20026;-89
2022/10/30 07:30:58;;;;;;;16.00;5.03;;;15.00;99.90;;;-144.05;59.63;125687.94;4977357;28;20034;-86
2022/10/30 07:33:27;;;;;;;11.82;4.80;;;15.30;99.90;;;-144.05;58.79;125687.94;4979172;28;20045;-88
2022/10/30 07:35:53;;;;;;;14.07;5.60;;;15.60;99.90;;;-144.05;58.24;125687.94;4995746;28;20030;-90
2022/10/30 07:38:19;;;;;;;9.75;4.55;;;15.80;99.90;;;-144.05;57.44;125687.94;4980520;28;20030;-86
2022/10/30 07:40:54;;;;;;;13.10;5.20;;;16.10;99.90;;;-144.05;56.77;125687.94;4981964;28;20077;-89
2022/10/30 07:43:25;;;;;;;16.38;5.15;;;16.40;99.90;;;-144.05;56.49;125687.94;4982517;28;20027;-87
2022/10/30 07:45:55;;;;;;;9.00;4.82;;;16.50;99.90;;;-144.05;56.18;125687.94;4982752;28;20035;-88
2022/10/30 07:48:21;;;;;;;14.05;5.57;;;16.60;99.90;;;-144.05;55.70;125687.94;4984101;28;20038;-90
2022/10/30 07:50:47;;;;;;;12.10;5.70;;;16.70;99.90;;;-144.05;55.11;125687.94;4995689;28;20030;-88
2022/10/30 07:53:14;;;;;;;11.10;5.47;;;16.80;99.90;;;-144.05;54.97;125687.94;4990433;28;20041;-87
2022/10/30 07:55:42;;;;;;;11.48;5.18;;;16.90;99.90;;;-144.05;54.83;125687.94;4976589;28;20086;-86
2022/10/30 07:58:09;;;;;;;12.80;4.82;;;17.10;99.90;;;-144.05;54.39;125687.94;4976671;28;20497;-87
2022/10/30 08:00:35;;;;;;;11.65;4.78;;;17.10;99.90;;;-144.05;55.52;125687.94;4976980;28;20116;-87
2022/10/30 08:03:01;;;;;;;10.35;4.30;;;17.20;99.90;;;-144.05;54.36;125687.94;4976757;28;20030;-87
2022/10/30 08:05:28;;;;;;;15.30;4.78;;;17.40;99.90;;;-144.05;53.47;125687.94;4976657;28;20030;-87
2022/10/30 08:07:54;;;;;;;10.00;4.65;;;17.50;99.90;;;-144.05;53.20;125687.94;4976472;28;20034;-86
2022/10/30 08:10:20;;;;;;;14.52;4.68;;;17.60;99.90;;;-144.05;52.91;125687.94;4976597;28;20080;-89
2022/10/30 08:12:47;;;;;;;11.43;4.78;;;17.70;99.90;;;-144.05;52.69;125687.94;4976331;28;20030;-87
2022/10/30 08:15:14;;;;;;;12.77;4.82;;;17.70;99.90;;;-144.05;52.65;125687.94;4992825;28;20122;-85
2022/10/30 08:17:49;;;;;;;13.38;4.53;;;17.70;99.90;;;-144.05;52.16;125687.94;4976218;28;20366;-86
2022/10/30 08:20:22;;;;;;;14.25;4.72;;;17.80;99.90;;;-144.05;52.38;125687.94;4975914;28;20054;-85
2022/10/30 08:22:56;;;;;;;15.40;4.97;;;17.90;99.90;;;-144.05;52.22;125687.94;4976058;28;20038;-86
2022/10/30 08:25:27;;;;;;;11.30;4.63;;;18.10;99.90;;;-144.05;52.19;125687.94;4976212;28;20126;-87
2022/10/30 08:28:02;;;;;;;12.07;4.40;;;18.40;99.90;;;-144.05;50.91;125687.94;4975926;28;20022;-86
2022/10/30 08:30:33;;;;;;;10.68;4.50;;;18.50;99.90;;;-144.05;50.37;125687.94;4976111;28;20134;-85
2022/10/30 08:33:04;;;;;;;8.95;4.30;;;18.60;99.90;;;-144.05;50.55;125687.94;4976730;28;20038;-89
2022/10/30 08:35:31;;;;;;;13.23;4.88;;;18.70;99.90;;;-144.05;50.22;125687.94;4976419;28;20038;-88
2022/10/30 08:38:01;;;;;;;10.23;4.50;;;18.80;99.90;;;-144.05;50.16;125687.94;4976700;28;20385;-86
2022/10/30 08:40:28;;;;;;;18.00;5.13;;;18.90;99.90;;;-144.05;49.58;125687.94;4976543;28;20033;-89
2022/10/30 08:42:57;;;;;;;14.32;4.20;;;19.00;99.90;;;-144.05;49.45;125687.94;4976501;28;20027;-87
2022/10/30 08:45:24;;;;;;;13.18;5.10;;;19.20;99.90;;;-144.05;49.62;125687.94;4977006;28;20031;-87
2022/10/30 08:48:03;;;;;;;8.23;4.10;;;19.40;99.90;;;-144.05;49.40;125687.94;4976906;28;20053;-89
2022/10/30 08:50:31;;;;;;;10.82;3.72;;;19.50;99.90;;;-144.05;48.72;125687.94;4976101;28;20030;-87
2022/10/30 08:53:10;;;;;;;10.35;3.72;;;19.70;99.90;;;-144.05;47.82;125687.94;4975086;28;20026;-86
2022/10/30 08:55:38;;;;;;;12.95;4.68;;;19.90;99.90;;;-144.05;47.32;125687.94;4974925;28;20030;-86
2022/10/30 08:58:04;;;;;;;8.38;4.15;;;20.00;99.90;;;-144.05;47.24;125687.94;4991156;28;20121;-86
2022/10/30 09:00:30;;;;;;;9.63;4.22;;;20.10;99.90;;;-144.05;47.27;125687.94;4975190;28;20382;-87
2022/10/30 09:02:57;;;;;;;11.45;4.57;;;20.10;99.90;;;-144.05;46.84;125687.94;4974818;28;20030;-87
2022/10/30 09:05:22;;;;;;;14.50;4.28;;;20.30;99.90;;;-144.05;46.81;125687.94;4975125;28;20026;-86
2022/10/30 09:07:48;;;;;;;11.25;4.53;;;20.30;99.90;;;-144.05;46.68;125687.94;4974840;28;20053;-87
2022/10/30 09:10:15;;;;;;;13.98;4.00;;;20.40;99.90;;;-144.05;46.46;125687.94;4991529;28;20085;-87
2022/10/30 09:12:41;;;;;;;13.93;4.40;;;20.50;99.90;;;-144.05;46.86;125687.94;4992443;28;20121;-86
2022/10/30 09:15:07;;;;;;;11.23;4.13;;;20.50;99.90;;;-144.05;46.55;125687.94;4974818;28;20142;-86
2022/10/30 09:17:33;;;;;;;20.23;4.93;;;20.40;99.90;;;-144.05;47.14;125687.94;4990884;28;20117;-85
2022/10/30 09:19:59;;;;;;;17.63;4.85;;;20.50;99.90;;;-144.05;46.11;125687.94;4975046;28;20509;-86
2022/10/30 09:22:25;;;;;;;9.25;3.80;;;20.60;99.90;;;-144.05;45.91;125687.94;4974657;28;20026;-85
2022/10/30 09:24:51;;;;;;;17.42;4.43;;;20.80;99.90;;;-144.05;45.13;125687.94;4975019;28;20034;-87
2022/10/30 09:27:17;;;;;;;12.38;4.18;;;21.00;99.90;;;-144.05;45.14;125687.94;4975006;28;20481;-86
2022/10/30 09:29:43;;;;;;;15.05;4.95;;;21.10;99.90;;;-144.05;44.81;125687.94;4975562;28;20172;-86
2022/10/30 09:32:09;;;;;;;15.95;4.25;;;21.20;99.90;;;-144.05;44.22;125687.94;4974994;28;20507;-88
2022/10/30 09:34:37;;;;;;;10.48;4.20;;;21.30;99.90;;;-144.05;44.32;125687.94;4974778;28;20089;-87
2022/10/30 09:37:04;;;;;;;10.05;3.60;;;21.40;99.90;;;-144.05;44.59;125687.94;4974981;28;20469;-88
2022/10/30 09:39:30;;;;;;;14.00;4.30;;;21.60;99.90;;;-144.05;44.10;125687.94;4975381;28;20030;-87
2022/10/30 09:42:43;;;;;;;10.82;4.32;;;21.80;99.90;;;-144.05;43.35;125687.94;4975225;28;20031;-86
2022/10/30 09:45:47;;;;;;;7.95;3.67;;;22.00;99.90;;;-144.05;43.05;125687.94;4940722;28;20042;-86
2022/10/30 09:48:31;;;;;;;10.65;4.60;;;22.10;99.90;;;-144.05;42.72;125687.94;4990814;28;20065;-87
2022/10/30 09:51:36;;;;;;;13.05;3.75;;;22.30;99.90;;;-144.05;43.20;125687.94;4975183;28;20030;-87
2022/10/30 09:54:56;;;;;;;11.75;4.38;;;22.40;99.90;;;-144.05;42.77;125687.94;4977948;28;20039;-83
2022/10/30 09:58:11;;;;;;;10.80;3.97;;;22.60;99.90;;;-144.05;41.55;125687.94;4994022;28;20038;-85
2022/10/30 10:00:51;;;;;;;13.60;4.05;;;22.80;99.90;;;-144.05;41.38;125687.94;4976691;28;20030;-88
2022/10/30 10:04:16;;;;;;;9.55;3.65;;;22.80;99.90;;;-144.05;41.02;125687.94;4996191;28;20030;-88
2022/10/30 10:06:51;;;;;;;13.60;4.07;;;22.90;99.90;;;-144.05;41.58;125687.94;4916821;28;20116;-86
2022/10/30 10:09:25;;;;;;;14.20;4.83;;;22.90;99.90;;;-144.05;41.13;125687.94;4977154;28;20027;-86
2022/10/30 10:12:17;;;;;;;14.70;4.50;;;23.00;99.90;;;-144.05;40.53;125687.94;4995627;28;20033;-86
2022/10/30 10:14:47;;;;;;;14.30;4.22;;;23.10;99.90;;;-144.05;40.60;125687.94;4977642;28;20034;-86
2022/10/30 10:17:29;;;;;;;15.05;3.92;;;23.20;99.90;;;-144.05;40.59;125687.94;4976753;28;20041;-87
2022/10/30 10:20:00;;;;;;;12.50;4.22;;;23.10;99.90;;;-144.05;40.67;125687.94;4979552;28;20030;-86
2022/10/30 10:22:45;;;;;;;9.55;3.85;;;23.20;99.90;;;-144.05;40.25;125687.94;4997271;28;20037;-87
2022/10/30 10:25:19;;;;;;;12.98;4.32;;;23.20;99.90;;;-144.05;40.64;125687.94;4981111;28;20058;-86
2022/10/30 10:28:14;;;;;;;13.35;4.22;;;23.10;99.90;;;-144.05;41.07;125687.94;4981520;28;20034;-85
2022/10/30 10:31:03;;;;;;;13.18;4.28;;;23.10;99.90;;;-144.05;40.58;125687.94;4981338;28;20481;-85
2022/10/30 10:34:47;;;;;;;12.52;4.07;;;23.20;99.90;;;-144.05;40.86;125687.94;4981605;28;20061;-86
2022/10/30 10:37:40;;;;;;;12.77;4.07;;;23.20;99.90;;;-144.05;40.86;125687.94;4893863;28;20052;-85
2022/10/30 10:40:45;;;;;;;11.90;3.90;;;23.30;99.90;;;-144.05;41.13;125687.94;4979630;28;20085;-84
2022/10/30 10:43:57;;;;;;;9.15;3.80;;;23.50;99.90;;;-144.05;40.66;125687.94;4980076;28;20522;-83
2022/10/30 10:47:09;;;;;;;14.65;3.95;;;23.60;99.90;;;-144.05;40.11;125687.94;4998207;28;20114;-85
2022/10/30 10:50:15;;;;;;;8.98;4.00;;;23.60;99.90;;;-144.05;40.83;125687.94;4979680;28;20026;-81
2022/10/30 10:53:10;;;;;;;11.73;4.28;;;23.50;99.90;;;-144.05;41.26;125687.94;4981512;28;20489;-84
2022/10/30 10:55:40;;;;;;;12.15;4.55;;;23.50;99.90;;;-144.05;40.84;125687.94;4982305;28;20030;-86
2022/10/30 10:58:38;;;;;;;9.95;4.03;;;23.50;99.90;;;-144.05;41.54;125687.94;4982690;28;20485;-84
2022/10/30 11:01:16;;;;;;;10.65;3.50;;;23.40;99.90;;;-144.05;41.20;125687.94;4981755;28;20026;-87
2022/10/30 11:04:04;;;;;;;11.65;3.95;;;23.40;99.90;;;-144.05;40.75;125687.94;4981298;28;20378;-85
2022/10/30 11:06:45;;;;;;;13.98;4.07;;;23.50;99.90;;;-144.05;40.05;125687.94;4981293;28;20124;-81
2022/10/30 11:09:22;;;;;;;9.57;3.40;;;23.50;99.90;;;-144.05;40.54;125687.94;4998173;28;20386;-87
2022/10/30 11:11:57;;;;;;;11.85;4.20;;;23.60;99.90;;;-144.05;40.82;125687.94;4978829;28;20405;-84
2022/10/30 11:14:29;;;;;;;13.75;3.92;;;23.60;99.90;;;-144.05;40.96;125687.94;4978524;28;20034;-82
2022/10/30 11:17:21;;;;;;;8.63;3.88;;;23.50;99.90;;;-144.05;41.34;125687.94;4995270;28;20030;-84
2022/10/30 11:19:57;;;;;;;10.32;3.95;;;23.50;99.90;;;-144.05;41.10;125687.94;4904518;28;20056;-86
2022/10/30 11:22:45;;;;;;;17.17;4.18;;;23.60;99.90;;;-144.05;41.29;125687.94;5028276;28;20115;-86
2022/10/30 11:25:33;;;;;;;15.63;4.22;;;23.70;99.90;;;-144.05;39.96;125687.94;5020787;28;20029;-86
2022/10/30 11:28:04;;;;;;;11.00;3.45;;;23.80;99.90;;;-144.05;39.12;125687.94;5020234;28;20033;-84
2022/10/30 11:30:31;;;;;;;14.18;4.22;;;23.90;99.90;;;-144.05;40.39;125687.94;5019384;28;20124;-86
2022/10/30 11:33:18;;;;;;;12.50;3.92;;;23.90;99.90;;;-144.05;40.48;125687.94;5019672;28;20033;-84
2022/10/30 11:35:44;;;;;;;11.65;3.67;;;23.90;99.90;;;-144.05;39.75;125687.94;5038049;28;20030;-85
2022/10/30 11:38:20;;;;;;;13.55;3.63;;;24.00;99.90;;;-144.05;39.95;125687.94;5018746;28;20032;-85
2022/10/30 11:40:51;;;;;;;13.32;3.72;;;24.10;99.90;;;-144.05;39.22;125687.94;5019955;28;20072;-85
2022/10/30 11:43:24;;;;;;;9.82;3.35;;;24.20;99.90;;;-144.05;39.00;125687.94;5018424;28;20175;-85
2022/10/30 11:45:51;;;;;;;9.50;3.75;;;24.30;99.90;;;-144.05;39.46;125687.94;5018192;28;20116;-84
2022/10/30 11:48:33;;;;;;;11.73;3.75;;;24.40;99.90;;;-144.05;39.41;125687.94;5035703;28;20161;-84
2022/10/30 11:51:02;;;;;;;12.10;3.28;;;24.30;99.90;;;-144.05;38.80;125687.94;5017695;28;20060;-84
2022/10/30 11:53:46;;;;;;;12.30;4.00;;;24.20;99.90;;;-144.05;38.87;125687.94;5016661;28;20037;-87
2022/10/30 11:56:21;;;;;;;9.30;2.90;;;24.10;99.90;;;-144.05;38.56;125687.94;5018852;28;20033;-89
2022/10/30 11:58:57;;;;;;;10.20;3.20;;;24.10;99.90;;;-144.05;38.16;125687.94;5031769;28;20041;-84
2022/10/30 12:01:37;;;;;;;12.40;3.30;;;24.20;99.90;;;-144.05;37.79;125687.94;5032351;28;20034;-84
2022/10/30 12:04:26;;;;;;;8.95;3.25;;;24.20;99.90;;;-144.05;38.39;125687.94;5002667;28;20030;-85
2022/10/30 12:07:52;;;;;;;11.18;3.38;;;24.10;99.90;;;-144.05;38.63;125687.94;5017466;28;20404;-86
2022/10/30 12:10:30;;;;;;;10.02;2.88;;;24.10;99.90;;;-144.05;38.22;125687.94;5018313;28;20060;-89
2022/10/30 12:12:56;;;;;;;11.55;3.47;;;24.10;99.90;;;-144.05;37.79;125687.94;5021078;28;20051;-88
2022/10/30 12:15:27;;;;;;;7.95;3.00;;;24.10;99.90;;;-144.05;38.94;125687.94;5020103;28;20030;-87
2022/10/30 12:18:00;;;;;;;12.98;3.38;;;24.00;99.90;;;-144.05;38.81;125687.94;5018253;28;20120;-85
2022/10/30 12:20:31;;;;;;;10.65;3.38;;;24.00;99.90;;;-144.05;37.86;125687.94;5018740;28;20481;-86
2022/10/30 12:23:20;;;;;;;11.57;3.80;;;24.00;99.90;;;-144.05;37.72;125687.94;5017390;28;20034;-87
2022/10/30 12:25:51;;;;;;;7.57;3.28;;;24.00;99.90;;;-144.05;37.97;125687.94;5017183;28;20033;-83
2022/10/30 12:28:29;;;;;;;10.45;3.17;;;24.00;99.90;;;-144.05;38.44;125687.94;5016585;28;20025;-86
2022/10/30 12:31:07;;;;;;;9.32;3.33;;;23.90;99.90;;;-144.05;37.76;125687.94;5017593;28;20040;-86
2022/10/30 12:34:42;;;;;;;15.77;3.75;;;23.90;99.90;;;-144.05;38.25;125687.94;5015990;28;20215;-84
2022/10/30 12:37:21;;;;;;;9.10;3.30;;;24.00;99.90;;;-144.05;37.77;125687.94;5015648;28;20117;-81
2022/10/30 12:40:05;;;;;;;11.63;3.28;;;24.00;99.90;;;-144.05;37.85;125687.94;5032678;28;20036;-85
2022/10/30 12:42:41;;;;;;;14.38;3.85;;;24.00;99.90;;;-144.05;38.17;125687.94;5013879;28;20041;-83
2022/10/30 12:45:32;;;;;;;12.82;3.55;;;23.90;99.90;;;-144.05;37.94;125687.94;5014719;28;20060;-84
2022/10/30 12:48:31;;;;;;;11.45;3.47;;;23.90;99.90;;;-144.05;37.79;125687.94;5031470;28;20026;-76
2022/10/30 12:52:18;;;;;;;18.85;3.88;;;23.90;99.90;;;-144.05;38.36;125687.94;5014738;28;20025;-84
2022/10/30 12:54:58;;;;;;;11.90;2.83;;;23.80;99.90;;;-144.05;38.48;125687.94;5008713;28;20041;-85
2022/10/30 12:57:36;;;;;;;6.78;3.35;;;23.70;99.90;;;-144.05;38.18;125687.94;5014804;28;20215;-83
2022/10/30 13:00:18;;;;;;;8.88;3.30;;;23.60;99.90;;;-144.05;38.32;125687.94;5015050;28;20132;-84
2022/10/30 13:03:38;;;;;;;15.73;3.53;;;23.40;99.90;;;-144.05;39.12;125687.94;5014649;28;20026;-82
2022/10/30 13:06:19;;;;;;;7.68;2.97;;;23.30;99.90;;;-144.05;38.67;125687.94;5014031;28;20041;-84
2022/10/30 13:09:03;;;;;;;9.73;3.30;;;23.20;99.90;;;-144.05;38.75;125687.94;5032484;28;20033;-83
2022/10/30 13:12:14;;;;;;;16.08;3.63;;;23.30;99.90;;;-144.05;39.03;125687.94;5014494;28;20029;-83
2022/10/30 13:15:00;;;;;;;10.30;3.20;;;23.10;99.90;;;-144.05;39.05;125687.94;5014328;28;20033;-83
2022/10/30 13:17:27;;;;;;;10.05;3.38;;;23.10;99.90;;;-144.05;39.28;125687.94;5014515;28;20120;-84
2022/10/30 13:19:53;;;;;;;13.15;3.33;;;23.00;99.90;;;-144.05;39.16;125687.94;5014590;28;20029;-81
2022/10/30 13:22:59;;;;;;;11.13;3.70;;;22.90;99.90;;;-144.05;39.49;125687.94;5031958;28;20025;-84
2022/10/30 13:26:02;;;;;;;10.35;3.33;;;22.90;99.90;;;-144.05;39.62;125687.94;5014361;28;20032;-85
2022/10/30 13:29:11;;;;;;;6.78;2.88;;;22.80;99.90;;;-144.05;39.79;125687.94;5014366;28;20033;-82
2022/10/30 13:32:15;;;;;;;6.68;3.15;;;22.80;99.90;;;-144.05;40.67;125687.94;5000452;28;20140;-83
2022/10/30 13:35:26;;;;;;;11.43;3.40;;;22.70;99.90;;;-144.05;41.21;125687.94;5016994;28;20033;-85
2022/10/30 13:38:14;;;;;;;11.38;3.60;;;22.50;99.90;;;-144.05;41.22;125687.94;4995928;28;20054;-85
2022/10/30 13:41:22;;;;;;;15.88;3.45;;;22.40;99.90;;;-144.05;41.41;125687.94;5015809;28;20083;-83
2022/10/30 13:44:53;;;;;;;14.13;3.03;;;22.40;99.90;;;-144.05;41.17;125687.94;5015744;28;20169;-82
2022/10/30 13:47:48;;;;;;;11.02;4.00;;;22.40;99.90;;;-144.05;41.21;125687.94;5015671;28;20508;-84
2022/10/30 13:51:08;;;;;;;11.05;3.63;;;22.40;99.90;;;-144.05;41.38;125687.94;5032788;28;20488;-85